Time;durP1;ratioP1;P1;durP2;ratioP2;P2;SDS_P1;SDS_P2;PMS_P1;PMS_P2;Temp;Humidity;BMP_temperature;BMP_pressure;BME280_temperature;BME280_humidity;BME280_pressure;Samples;Min_cycle;Max_cycle;Signal;HPM_P1;HPM_P2
2023/09/14 00:01:12;;;;;;;10.70;4.53;;;;;;;;;;5113042;28;20549;-62
2023/09/14 00:03:39;;;;;;;11.57;4.10;;;;;;;;;;5113229;28;20546;-62
2023/09/14 00:06:07;;;;;;;8.40;3.43;;;;;;;;;;5113489;28;20459;-62
2023/09/14 00:08:34;;;;;;;16.97;5.03;;;;;;;;;;5117730;28;20823;-62
2023/09/14 00:11:03;;;;;;;19.20;3.77;;;;;;;;;;5117379;28;20528;-62
2023/09/14 00:13:30;;;;;;;10.10;3.90;;;;;;;;;;5117385;28;20445;-62
2023/09/14 00:15:57;;;;;;;13.10;3.93;;;;;;;;;;5117167;28;20449;-62
2023/09/14 00:18:27;;;;;;;8.37;3.90;;;;;;;;;;5117356;28;20551;-62
2023/09/14 00:20:56;;;;;;;4.33;3.20;;;;;;;;;;5117413;28;20434;-62
2023/09/14 00:23:23;;;;;;;9.27;4.27;;;;;;;;;;5117272;28;20448;-62
2023/09/14 00:25:50;;;;;;;10.60;3.27;;;;;;;;;;5117921;28;20555;-62
2023/09/14 00:28:18;;;;;;;8.20;3.80;;;;;;;;;;5117147;28;20531;-63
2023/09/14 00:30:45;;;;;;;17.83;3.87;;;;;;;;;;5116858;28;20448;-62
2023/09/14 00:33:12;;;;;;;10.70;4.20;;;;;;;;;;5116687;28;20927;-62
2023/09/14 00:35:41;;;;;;;8.20;3.50;;;;;;;;;;5117431;28;20469;-61
2023/09/14 00:38:08;;;;;;;10.53;5.20;;;;;;;;;;5116582;28;20439;-62
2023/09/14 00:40:35;;;;;;;8.40;4.50;;;;;;;;;;5117005;28;20528;-62
2023/09/14 00:43:03;;;;;;;13.63;4.30;;;;;;;;;;5116777;28;20449;-62
2023/09/14 00:45:30;;;;;;;9.23;3.53;;;;;;;;;;5117324;28;20437;-62
2023/09/14 00:47:58;;;;;;;10.83;4.13;;;;;;;;;;5116708;28;20520;-62
2023/09/14 00:50:25;;;;;;;6.17;3.40;;;;;;;;;;5116430;28;20444;-62
2023/09/14 00:52:56;;;;;;;13.77;3.77;;;;;;;;;;5116569;28;20832;-62
2023/09/14 00:55:24;;;;;;;10.47;3.73;;;;;;;;;;5116928;28;20454;-62
2023/09/14 00:57:52;;;;;;;13.00;3.57;;;;;;;;;;5116591;28;20435;-62
2023/09/14 01:00:20;;;;;;;9.60;4.00;;;;;;;;;;5116682;28;20449;-62
2023/09/14 01:02:47;;;;;;;15.73;3.93;;;;;;;;;;5116491;28;20884;-62
2023/09/14 01:05:15;;;;;;;6.07;4.00;;;;;;;;;;5116584;28;20469;-62
2023/09/14 01:07:42;;;;;;;10.03;3.60;;;;;;;;;;5116327;28;20437;-62
2023/09/14 01:10:12;;;;;;;6.77;3.80;;;;;;;;;;5116273;28;20434;-62
2023/09/14 01:12:39;;;;;;;10.80;3.90;;;;;;;;;;5115901;28;20475;-62
2023/09/14 01:15:10;;;;;;;9.80;4.23;;;;;;;;;;5116228;28;20436;-62
2023/09/14 01:17:40;;;;;;;9.77;4.17;;;;;;;;;;5116591;28;20439;-62
2023/09/14 01:20:19;;;;;;;8.60;3.20;;;;;;;;;;5116099;28;20532;-62
2023/09/14 01:22:54;;;;;;;6.00;3.43;;;;;;;;;;5116254;28;20464;-63
2023/09/14 01:25:23;;;;;;;5.50;3.50;;;;;;;;;;5115929;28;20483;-63
2023/09/14 01:27:52;;;;;;;7.47;3.93;;;;;;;;;;5116181;28;20468;-62
2023/09/14 01:30:19;;;;;;;10.50;5.00;;;;;;;;;;5115570;28;20440;-63
2023/09/14 01:32:46;;;;;;;7.20;3.73;;;;;;;;;;5115656;28;20473;-63
2023/09/14 01:35:13;;;;;;;7.00;3.83;;;;;;;;;;5115932;28;20914;-62
2023/09/14 01:37:41;;;;;;;6.90;4.10;;;;;;;;;;5116020;28;20429;-62
2023/09/14 01:40:09;;;;;;;9.53;4.07;;;;;;;;;;5115432;28;20460;-62
2023/09/14 01:42:38;;;;;;;5.43;3.40;;;;;;;;;;5116020;28;20884;-62
2023/09/14 01:45:08;;;;;;;7.10;3.17;;;;;;;;;;5115703;28;20437;-62
2023/09/14 01:47:35;;;;;;;8.40;4.53;;;;;;;;;;5115846;28;20451;-62
2023/09/14 01:50:02;;;;;;;7.60;4.20;;;;;;;;;;5115602;28;20879;-62
2023/09/14 01:52:29;;;;;;;6.43;4.30;;;;;;;;;;5115847;28;20504;-62
2023/09/14 01:54:57;;;;;;;12.37;4.10;;;;;;;;;;5115012;28;20452;-62
2023/09/14 01:57:24;;;;;;;14.43;4.23;;;;;;;;;;5115216;28;20930;-62
2023/09/14 01:59:51;;;;;;;7.60;4.37;;;;;;;;;;5115106;28;20460;-62
2023/09/14 02:02:23;;;;;;;10.90;4.53;;;;;;;;;;5115343;28;20536;-62
2023/09/14 02:04:50;;;;;;;7.20;3.90;;;;;;;;;;5115610;28;20428;-62
2023/09/14 02:07:17;;;;;;;12.40;4.27;;;;;;;;;;5115233;28;20622;-62
2023/09/14 02:09:44;;;;;;;8.43;3.97;;;;;;;;;;5115242;28;20446;-62
2023/09/14 02:12:12;;;;;;;13.63;4.63;;;;;;;;;;5114797;28;20567;-62
2023/09/14 02:14:39;;;;;;;7.27;3.57;;;;;;;;;;5114721;28;20446;-62
2023/09/14 02:17:06;;;;;;;10.53;4.00;;;;;;;;;;5114819;28;20933;-63
2023/09/14 02:19:34;;;;;;;6.00;3.90;;;;;;;;;;5114976;28;20440;-62
2023/09/14 02:22:02;;;;;;;4.40;3.70;;;;;;;;;;5115049;28;20450;-62
2023/09/14 02:24:29;;;;;;;8.70;3.97;;;;;;;;;;5114659;28;20478;-61
2023/09/14 02:26:56;;;;;;;9.80;4.07;;;;;;;;;;5114915;28;20443;-62
2023/09/14 02:29:23;;;;;;;9.40;3.40;;;;;;;;;;5113885;28;20918;-62
2023/09/14 02:31:50;;;;;;;6.93;3.80;;;;;;;;;;5114606;28;20770;-61
2023/09/14 02:34:17;;;;;;;10.83;4.53;;;;;;;;;;5115162;28;20541;-62
2023/09/14 02:36:46;;;;;;;11.20;3.90;;;;;;;;;;5115017;28;20441;-62
2023/09/14 02:39:13;;;;;;;5.73;3.83;;;;;;;;;;5114246;28;20432;-62
2023/09/14 02:41:40;;;;;;;8.13;4.67;;;;;;;;;;5114608;28;20487;-62
2023/09/14 02:44:08;;;;;;;6.93;3.93;;;;;;;;;;5114149;28;21032;-62
2023/09/14 02:46:35;;;;;;;11.73;4.23;;;;;;;;;;5114556;28;20441;-62
2023/09/14 02:49:02;;;;;;;9.63;3.60;;;;;;;;;;5114896;28;20440;-62
2023/09/14 02:51:29;;;;;;;12.30;5.13;;;;;;;;;;5114133;28;20445;-62
2023/09/14 02:53:58;;;;;;;7.40;3.73;;;;;;;;;;5114768;28;20492;-62
2023/09/14 02:56:25;;;;;;;8.53;4.60;;;;;;;;;;5113909;28;20443;-62
2023/09/14 02:58:52;;;;;;;7.23;3.33;;;;;;;;;;5114004;28;20442;-62
2023/09/14 03:01:20;;;;;;;5.67;3.77;;;;;;;;;;5113859;28;20437;-62
2023/09/14 03:03:48;;;;;;;7.10;4.20;;;;;;;;;;5113871;28;20447;-62
2023/09/14 03:06:15;;;;;;;5.30;3.27;;;;;;;;;;5113736;28;20524;-62
2023/09/14 03:08:42;;;;;;;8.87;3.90;;;;;;;;;;5114062;28;20857;-62
2023/09/14 03:11:11;;;;;;;10.50;4.70;;;;;;;;;;5113890;28;20519;-62
2023/09/14 03:13:38;;;;;;;7.80;3.30;;;;;;;;;;5114221;28;20487;-62
2023/09/14 03:16:05;;;;;;;8.30;4.30;;;;;;;;;;5113890;28;20519;-62
2023/09/14 03:18:33;;;;;;;9.27;4.20;;;;;;;;;;5113897;28;20512;-62
2023/09/14 03:21:00;;;;;;;8.33;3.90;;;;;;;;;;5114387;28;20443;-62
2023/09/14 03:23:27;;;;;;;9.20;4.80;;;;;;;;;;5113494;28;20436;-62
2023/09/14 03:25:54;;;;;;;6.47;4.20;;;;;;;;;;5113999;28;20466;-62
2023/09/14 03:28:23;;;;;;;8.37;4.00;;;;;;;;;;5114254;28;20445;-62
2023/09/14 03:30:50;;;;;;;9.50;4.33;;;;;;;;;;5113844;28;20448;-62
2023/09/14 03:33:17;;;;;;;9.07;4.17;;;;;;;;;;5114334;28;20576;-62
2023/09/14 03:35:44;;;;;;;6.30;5.43;;;;;;;;;;5113882;28;20511;-63
2023/09/14 03:38:11;;;;;;;7.70;3.80;;;;;;;;;;5113726;28;20451;-61
2023/09/14 03:40:39;;;;;;;6.43;4.00;;;;;;;;;;5112856;28;20444;-62
2023/09/14 03:43:06;;;;;;;8.27;4.10;;;;;;;;;;5113079;28;20545;-61
2023/09/14 03:45:36;;;;;;;6.13;3.90;;;;;;;;;;5113517;28;20506;-61
2023/09/14 03:48:04;;;;;;;5.00;4.10;;;;;;;;;;5112471;28;20441;-62
2023/09/14 03:50:31;;;;;;;7.80;4.60;;;;;;;;;;5111624;28;20440;-61
2023/09/14 03:52:59;;;;;;;6.63;3.67;;;;;;;;;;5111887;28;20470;-61
2023/09/14 03:55:26;;;;;;;8.87;3.90;;;;;;;;;;5112735;28;20460;-61
2023/09/14 03:57:53;;;;;;;10.17;4.30;;;;;;;;;;5112986;28;20791;-62
2023/09/14 04:00:21;;;;;;;7.87;4.07;;;;;;;;;;5112255;28;20470;-61
2023/09/14 04:02:49;;;;;;;5.43;4.27;;;;;;;;;;5112723;28;20475;-61
2023/09/14 04:05:17;;;;;;;8.80;4.10;;;;;;;;;;5113091;28;20432;-61
2023/09/14 04:07:45;;;;;;;5.50;3.93;;;;;;;;;;5112615;28;20474;-61
2023/09/14 04:10:12;;;;;;;6.93;3.43;;;;;;;;;;5112794;28;20433;-61
2023/09/14 04:12:39;;;;;;;6.30;4.20;;;;;;;;;;5113208;28;20510;-60
2023/09/14 04:15:07;;;;;;;10.20;4.30;;;;;;;;;;5113172;28;20870;-60
2023/09/14 04:17:34;;;;;;;8.53;4.10;;;;;;;;;;5113116;28;20526;-61
2023/09/14 04:20:10;;;;;;;5.27;4.23;;;;;;;;;;5112882;28;20431;-60
2023/09/14 04:22:37;;;;;;;8.40;4.07;;;;;;;;;;5112680;28;20433;-60
2023/09/14 04:25:06;;;;;;;14.97;5.37;;;;;;;;;;5112769;28;21069;-61
2023/09/14 04:27:33;;;;;;;10.93;5.23;;;;;;;;;;5112802;28;20440;-61
2023/09/14 04:30:00;;;;;;;6.57;4.43;;;;;;;;;;5112474;28;20435;-61
2023/09/14 04:32:27;;;;;;;6.40;4.90;;;;;;;;;;5112630;28;20961;-61
2023/09/14 04:34:55;;;;;;;7.00;5.17;;;;;;;;;;5112710;28;20431;-64
2023/09/14 04:37:23;;;;;;;9.50;4.77;;;;;;;;;;5112751;28;20497;-61
2023/09/14 04:39:50;;;;;;;6.50;4.93;;;;;;;;;;5112775;28;20436;-61
2023/09/14 04:42:18;;;;;;;14.37;5.40;;;;;;;;;;5112407;28;20496;-61
2023/09/14 04:44:49;;;;;;;8.73;5.07;;;;;;;;;;5112737;28;20482;-65
2023/09/14 04:47:17;;;;;;;11.27;5.63;;;;;;;;;;5112909;28;20429;-61
2023/09/14 04:49:44;;;;;;;16.60;6.67;;;;;;;;;;5112581;28;20438;-61
2023/09/14 04:52:12;;;;;;;14.10;8.07;;;;;;;;;;5113160;28;20437;-60
2023/09/14 04:54:41;;;;;;;14.13;6.27;;;;;;;;;;5116659;28;20492;-61
2023/09/14 04:57:08;;;;;;;11.57;5.00;;;;;;;;;;5116256;28;20473;-61
2023/09/14 04:59:35;;;;;;;17.93;6.10;;;;;;;;;;5116398;28;20482;-61
2023/09/14 05:02:03;;;;;;;12.40;7.37;;;;;;;;;;5116195;28;20440;-61
2023/09/14 05:04:30;;;;;;;7.50;4.97;;;;;;;;;;5116848;28;20798;-61
2023/09/14 05:06:57;;;;;;;11.93;5.90;;;;;;;;;;5115904;28;20928;-61
2023/09/14 05:09:24;;;;;;;7.63;5.80;;;;;;;;;;5116249;28;20470;-61
2023/09/14 05:11:53;;;;;;;10.13;5.63;;;;;;;;;;5116288;28;20443;-61
2023/09/14 05:14:20;;;;;;;19.43;5.50;;;;;;;;;;5116472;28;20472;-61
2023/09/14 05:16:47;;;;;;;11.33;6.20;;;;;;;;;;5116393;28;20446;-61
2023/09/14 05:19:15;;;;;;;8.80;5.83;;;;;;;;;;5116123;28;20950;-61
2023/09/14 05:21:42;;;;;;;12.03;5.93;;;;;;;;;;5116286;28;20496;-62
2023/09/14 05:24:09;;;;;;;8.60;5.07;;;;;;;;;;5116272;28;20468;-61
2023/09/14 05:26:36;;;;;;;9.73;5.00;;;;;;;;;;5116343;28;20441;-61
2023/09/14 05:29:05;;;;;;;9.70;5.70;;;;;;;;;;5116629;28;20865;-61
2023/09/14 05:31:32;;;;;;;7.90;5.50;;;;;;;;;;5116653;28;20504;-61
2023/09/14 05:33:59;;;;;;;6.83;5.33;;;;;;;;;;5115795;28;20980;-61
2023/09/14 05:36:27;;;;;;;8.57;5.40;;;;;;;;;;5116550;28;20500;-61
2023/09/14 05:38:54;;;;;;;12.53;5.20;;;;;;;;;;5116072;28;20476;-61
2023/09/14 05:41:21;;;;;;;19.23;6.27;;;;;;;;;;5116596;28;20435;-61
2023/09/14 05:43:48;;;;;;;8.00;5.10;;;;;;;;;;5115896;28;20446;-61
2023/09/14 05:46:17;;;;;;;10.40;5.60;;;;;;;;;;5115486;28;20450;-61
2023/09/14 05:48:44;;;;;;;11.53;6.53;;;;;;;;;;5115543;28;20948;-62
2023/09/14 05:51:11;;;;;;;13.47;6.27;;;;;;;;;;5115374;28;20964;-62
2023/09/14 05:53:38;;;;;;;11.23;6.93;;;;;;;;;;5115472;28;20487;-61
2023/09/14 05:56:06;;;;;;;14.27;6.43;;;;;;;;;;5115681;28;20552;-62
2023/09/14 05:58:33;;;;;;;6.63;5.40;;;;;;;;;;5115639;28;20479;-62
2023/09/14 06:01:03;;;;;;;10.13;6.27;;;;;;;;;;5115421;28;21016;-61
2023/09/14 06:03:32;;;;;;;12.97;5.60;;;;;;;;;;5115180;28;20489;-62
2023/09/14 06:05:59;;;;;;;8.87;4.93;;;;;;;;;;5114655;28;20484;-62
2023/09/14 06:08:26;;;;;;;13.80;5.53;;;;;;;;;;5115457;28;20428;-61
2023/09/14 06:10:53;;;;;;;9.93;6.13;;;;;;;;;;5115518;28;20448;-61
2023/09/14 06:13:20;;;;;;;17.60;6.47;;;;;;;;;;5115220;28;20483;-61
2023/09/14 06:15:48;;;;;;;20.50;8.30;;;;;;;;;;5116002;28;20436;-62
2023/09/14 06:18:15;;;;;;;11.67;8.57;;;;;;;;;;5115049;28;20480;-61
2023/09/14 06:20:44;;;;;;;12.40;6.90;;;;;;;;;;5114802;28;20437;-61
2023/09/14 06:23:11;;;;;;;13.70;6.50;;;;;;;;;;5114706;28;20442;-61
2023/09/14 06:25:38;;;;;;;17.40;6.90;;;;;;;;;;5115310;28;20473;-61
2023/09/14 06:28:06;;;;;;;13.10;5.87;;;;;;;;;;5114701;28;20445;-61
2023/09/14 06:30:33;;;;;;;17.53;6.83;;;;;;;;;;5114757;28;20528;-62
2023/09/14 06:33:00;;;;;;;13.20;5.77;;;;;;;;;;5114924;28;20432;-61
2023/09/14 06:35:27;;;;;;;11.60;6.50;;;;;;;;;;5114720;28;20514;-61
2023/09/14 06:37:56;;;;;;;12.53;5.70;;;;;;;;;;5114766;28;20472;-62
2023/09/14 06:40:24;;;;;;;10.83;6.40;;;;;;;;;;5114427;28;20480;-62
2023/09/14 06:42:51;;;;;;;12.90;5.87;;;;;;;;;;5114969;28;20771;-61
2023/09/14 06:45:18;;;;;;;11.60;6.20;;;;;;;;;;5114777;28;20589;-61
2023/09/14 06:47:46;;;;;;;11.00;5.70;;;;;;;;;;5115173;28;20535;-62
2023/09/14 06:50:14;;;;;;;8.77;4.57;;;;;;;;;;5114582;28;20437;-62
2023/09/14 06:52:41;;;;;;;15.43;7.87;;;;;;;;;;5114025;28;20446;-61
2023/09/14 06:55:10;;;;;;;12.27;6.73;;;;;;;;;;5114849;28;20502;-62
2023/09/14 06:57:37;;;;;;;9.57;5.27;;;;;;;;;;5114350;28;20428;-62
2023/09/14 07:00:14;;;;;;;8.60;6.10;;;;;;;;;;5114619;28;20442;-62
2023/09/14 07:02:42;;;;;;;13.00;8.77;;;;;;;;;;5114361;28;20425;-61
2023/09/14 07:05:10;;;;;;;9.47;5.03;;;;;;;;;;5113967;28;20433;-62
2023/09/14 07:07:37;;;;;;;7.77;4.40;;;;;;;;;;5114153;28;20792;-62
2023/09/14 07:10:05;;;;;;;7.27;4.93;;;;;;;;;;5113919;28;20452;-61
2023/09/14 07:12:33;;;;;;;7.60;4.37;;;;;;;;;;5113770;28;20438;-62
2023/09/14 07:15:00;;;;;;;10.80;4.37;;;;;;;;;;5114281;28;20565;-62
2023/09/14 07:17:28;;;;;;;9.60;4.50;;;;;;;;;;5113732;28;20528;-62
2023/09/14 07:19:55;;;;;;;9.83;4.93;;;;;;;;;;5113704;28;20532;-62
2023/09/14 07:22:22;;;;;;;12.50;5.30;;;;;;;;;;5113978;28;20964;-62
2023/09/14 07:24:49;;;;;;;6.57;3.80;;;;;;;;;;5113580;28;20559;-62
2023/09/14 07:27:17;;;;;;;10.20;4.30;;;;;;;;;;5113616;28;20797;-62
2023/09/14 07:29:45;;;;;;;8.43;3.70;;;;;;;;;;5113728;28;20463;-62
2023/09/14 07:32:13;;;;;;;8.93;4.10;;;;;;;;;;5114197;28;20525;-62
2023/09/14 07:34:40;;;;;;;8.93;3.40;;;;;;;;;;5113342;28;20484;-62
2023/09/14 07:37:07;;;;;;;8.07;3.50;;;;;;;;;;5113730;28;20798;-62
2023/09/14 07:39:35;;;;;;;10.23;6.60;;;;;;;;;;5113616;28;20460;-62
2023/09/14 07:42:03;;;;;;;12.40;9.73;;;;;;;;;;5113195;28;20536;-62
2023/09/14 07:44:30;;;;;;;20.27;13.10;;;;;;;;;;5113747;28;20454;-63
2023/09/14 07:46:58;;;;;;;9.50;5.80;;;;;;;;;;5113742;28;20519;-62
2023/09/14 07:49:26;;;;;;;10.17;3.20;;;;;;;;;;5113052;28;20923;-63
2023/09/14 07:51:53;;;;;;;14.90;8.63;;;;;;;;;;5113260;28;20442;-62
2023/09/14 07:54:22;;;;;;;8.43;4.90;;;;;;;;;;5112840;28;21000;-62
2023/09/14 07:56:49;;;;;;;8.80;4.20;;;;;;;;;;5113075;28;20540;-62
2023/09/14 07:59:16;;;;;;;7.47;3.90;;;;;;;;;;5113698;28;20867;-63
2023/09/14 08:01:43;;;;;;;4.00;2.57;;;;;;;;;;5113326;28;20460;-63
2023/09/14 08:04:12;;;;;;;10.70;3.30;;;;;;;;;;5113441;28;20446;-62
2023/09/14 08:06:39;;;;;;;9.73;2.90;;;;;;;;;;5113362;28;20461;-62
2023/09/14 08:09:06;;;;;;;8.77;3.73;;;;;;;;;;5113185;28;20541;-62
2023/09/14 08:11:35;;;;;;;4.87;3.00;;;;;;;;;;5113526;28;20443;-62
2023/09/14 08:14:03;;;;;;;13.87;2.70;;;;;;;;;;5112011;28;20478;-62
2023/09/14 08:16:30;;;;;;;6.57;2.83;;;;;;;;;;5113097;28;20524;-62
2023/09/14 08:18:58;;;;;;;6.40;2.73;;;;;;;;;;5112805;28;20439;-62
2023/09/14 08:21:27;;;;;;;6.13;2.60;;;;;;;;;;5112942;28;20443;-62
2023/09/14 08:23:54;;;;;;;6.60;3.33;;;;;;;;;;5112444;28;21022;-62
2023/09/14 08:26:21;;;;;;;5.97;2.80;;;;;;;;;;5113080;28;20512;-62
2023/09/14 08:28:49;;;;;;;9.20;4.50;;;;;;;;;;5116130;28;20453;-62
2023/09/14 08:31:16;;;;;;;8.20;3.80;;;;;;;;;;5116819;28;20433;-62
2023/09/14 08:33:43;;;;;;;4.23;2.40;;;;;;;;;;5117071;28;20486;-62
2023/09/14 08:36:10;;;;;;;7.50;2.30;;;;;;;;;;5117131;28;20438;-62
2023/09/14 08:38:39;;;;;;;4.13;2.13;;;;;;;;;;5116849;28;20472;-61
2023/09/14 08:41:10;;;;;;;4.80;2.07;;;;;;;;;;5117006;28;20563;-61
2023/09/14 08:43:37;;;;;;;9.13;2.50;;;;;;;;;;5116963;28;20439;-61
2023/09/14 08:46:06;;;;;;;3.27;1.90;;;;;;;;;;5116496;28;20513;-62
2023/09/14 08:48:33;;;;;;;4.50;2.37;;;;;;;;;;5116460;28;20494;-61
2023/09/14 08:51:01;;;;;;;5.37;2.90;;;;;;;;;;5116333;28;20532;-61
2023/09/14 08:53:28;;;;;;;4.60;2.30;;;;;;;;;;5116919;28;20435;-61
2023/09/14 08:55:57;;;;;;;9.27;2.50;;;;;;;;;;5116505;28;20480;-61
2023/09/14 08:58:24;;;;;;;4.80;1.90;;;;;;;;;;5116343;28;20457;-61
2023/09/14 09:00:53;;;;;;;11.53;2.67;;;;;;;;;;5116891;28;20451;-61
2023/09/14 09:03:21;;;;;;;10.40;2.43;;;;;;;;;;5116510;28;20523;-61
2023/09/14 09:05:49;;;;;;;4.80;2.17;;;;;;;;;;5116109;28;20548;-61
2023/09/14 09:08:17;;;;;;;6.50;2.30;;;;;;;;;;5116138;28;20526;-61
2023/09/14 09:10:45;;;;;;;9.27;5.53;;;;;;;;;;5116233;28;20542;-61
2023/09/14 09:13:13;;;;;;;6.50;2.80;;;;;;;;;;5116387;28;20790;-62
2023/09/14 09:15:40;;;;;;;14.83;5.73;;;;;;;;;;5115804;28;20484;-62
2023/09/14 09:18:08;;;;;;;13.50;6.00;;;;;;;;;;5116581;28;20516;-62
2023/09/14 09:20:36;;;;;;;7.03;1.90;;;;;;;;;;5116113;28;20914;-61
2023/09/14 09:23:05;;;;;;;8.53;2.00;;;;;;;;;;5116145;28;20438;-61
2023/09/14 09:25:43;;;;;;;3.40;1.80;;;;;;;;;;5115590;28;20476;-61
2023/09/14 09:28:10;;;;;;;5.33;2.13;;;;;;;;;;5116119;28;20435;-61
2023/09/14 09:30:39;;;;;;;3.43;1.87;;;;;;;;;;5115904;28;20430;-61
2023/09/14 09:33:06;;;;;;;9.33;5.53;;;;;;;;;;5115988;28;20858;-61
2023/09/14 09:35:34;;;;;;;8.50;3.00;;;;;;;;;;5115748;28;20555;-61
2023/09/14 09:38:02;;;;;;;5.63;2.47;;;;;;;;;;5115572;28;20449;-61
2023/09/14 09:40:33;;;;;;;4.17;2.90;;;;;;;;;;5114486;28;20539;-61
2023/09/14 09:43:04;;;;;;;9.60;2.00;;;;;;;;;;5115491;28;20517;-62
2023/09/14 09:45:31;;;;;;;4.67;2.00;;;;;;;;;;5116088;28;20419;-62
2023/09/14 09:48:01;;;;;;;6.10;2.07;;;;;;;;;;5115369;28;20535;-61
2023/09/14 09:50:29;;;;;;;6.77;1.80;;;;;;;;;;5115288;28;20435;-62
2023/09/14 09:52:56;;;;;;;3.80;1.50;;;;;;;;;;5116256;28;20858;-61
2023/09/14 09:55:24;;;;;;;3.23;2.00;;;;;;;;;;5115071;28;20473;-62
2023/09/14 09:57:53;;;;;;;3.70;1.90;;;;;;;;;;5115541;28;20858;-61
2023/09/14 10:00:21;;;;;;;7.50;1.93;;;;;;;;;;5115451;28;20532;-61
2023/09/14 10:02:48;;;;;;;4.90;1.90;;;;;;;;;;5115488;28;20462;-61
2023/09/14 10:05:17;;;;;;;3.93;2.10;;;;;;;;;;5115002;28;20446;-61
2023/09/14 10:07:44;;;;;;;4.03;1.80;;;;;;;;;;5115370;28;20442;-61
2023/09/14 10:10:12;;;;;;;2.43;1.63;;;;;;;;;;5114822;28;20437;-61
2023/09/14 10:12:40;;;;;;;5.40;2.53;;;;;;;;;;5114926;28;20940;-61
2023/09/14 10:15:07;;;;;;;4.63;2.17;;;;;;;;;;5115107;28;20593;-61
2023/09/14 10:17:35;;;;;;;6.77;2.77;;;;;;;;;;5114849;28;20440;-61
2023/09/14 10:20:05;;;;;;;7.33;3.00;;;;;;;;;;5114982;28;20432;-61
2023/09/14 10:22:35;;;;;;;5.60;2.60;;;;;;;;;;5114839;28;20422;-61
2023/09/14 10:25:04;;;;;;;6.90;2.00;;;;;;;;;;5115033;28;20505;-62
2023/09/14 10:27:31;;;;;;;5.03;1.90;;;;;;;;;;5114642;28;20477;-61
2023/09/14 10:29:59;;;;;;;9.13;2.43;;;;;;;;;;5114892;28;20438;-62
2023/09/14 10:32:27;;;;;;;6.33;2.60;;;;;;;;;;5114595;28;20475;-61
2023/09/14 10:34:56;;;;;;;7.00;2.43;;;;;;;;;;5114721;28;20477;-61
2023/09/14 10:37:25;;;;;;;6.03;2.43;;;;;;;;;;5114396;28;20926;-61
2023/09/14 10:39:54;;;;;;;5.10;2.23;;;;;;;;;;5114765;28;20526;-61
2023/09/14 10:42:21;;;;;;;4.03;2.40;;;;;;;;;;5114650;28;20445;-61
2023/09/14 10:44:48;;;;;;;10.00;2.50;;;;;;;;;;5114660;28;20526;-61
2023/09/14 10:47:19;;;;;;;8.10;1.80;;;;;;;;;;5114469;28;20594;-62
2023/09/14 10:49:46;;;;;;;2.60;1.70;;;;;;;;;;5114433;28;20505;-62
2023/09/14 10:52:14;;;;;;;5.17;2.03;;;;;;;;;;5114226;28;20528;-63
2023/09/14 10:54:41;;;;;;;3.43;2.10;;;;;;;;;;5114078;28;20485;-62
2023/09/14 10:57:14;;;;;;;7.57;2.00;;;;;;;;;;5114152;28;20506;-62
2023/09/14 10:59:48;;;;;;;8.63;1.90;;;;;;;;;;5114578;28;20442;-62
2023/09/14 11:02:30;;;;;;;5.50;2.23;;;;;;;;;;5113848;28;20436;-62
2023/09/14 11:05:13;;;;;;;6.63;2.30;;;;;;;;;;5113943;28;20790;-61
2023/09/14 11:07:41;;;;;;;11.90;2.90;;;;;;;;;;5113772;28;20525;-61
2023/09/14 11:10:09;;;;;;;5.50;2.10;;;;;;;;;;5114389;28;20445;-61
2023/09/14 11:12:39;;;;;;;5.00;2.10;;;;;;;;;;5114030;28;20447;-61
2023/09/14 11:15:14;;;;;;;5.53;2.27;;;;;;;;;;5113964;28;20560;-61
2023/09/14 11:17:42;;;;;;;6.97;2.40;;;;;;;;;;5113598;28;20525;-62
2023/09/14 11:20:25;;;;;;;7.33;2.53;;;;;;;;;;5113946;28;20434;-62
2023/09/14 11:22:53;;;;;;;4.10;2.00;;;;;;;;;;5112968;28;20434;-62
2023/09/14 11:25:26;;;;;;;3.97;2.40;;;;;;;;;;5113691;28;20568;-62
2023/09/14 11:27:55;;;;;;;9.83;2.10;;;;;;;;;;5113953;28;20891;-61
2023/09/14 11:30:24;;;;;;;6.93;2.50;;;;;;;;;;5113759;28;20461;-61
2023/09/14 11:32:52;;;;;;;5.40;2.67;;;;;;;;;;5113481;28;20492;-62
2023/09/14 11:35:19;;;;;;;5.27;2.40;;;;;;;;;;5113639;28;20565;-66
2023/09/14 11:37:47;;;;;;;2.87;2.17;;;;;;;;;;5113550;28;20530;-61
2023/09/14 11:40:16;;;;;;;8.30;2.67;;;;;;;;;;5113307;28;20439;-62
2023/09/14 11:43:02;;;;;;;6.97;2.43;;;;;;;;;;5113433;28;20434;-61
2023/09/14 11:45:31;;;;;;;6.47;2.20;;;;;;;;;;5113170;28;20460;-61
2023/09/14 11:47:58;;;;;;;5.10;2.00;;;;;;;;;;5113450;28;20466;-61
2023/09/14 11:50:27;;;;;;;4.30;2.37;;;;;;;;;;5119942;27;20529;-62
2023/09/14 11:52:55;;;;;;;5.37;2.70;;;;;;;;;;5131923;27;21009;-62
2023/09/14 11:55:22;;;;;;;4.80;2.77;;;;;;;;;;5132324;27;20803;-62
2023/09/14 11:57:49;;;;;;;4.83;2.30;;;;;;;;;;5132944;27;20445;-61
2023/09/14 12:00:17;;;;;;;7.43;2.77;;;;;;;;;;5132849;27;20434;-61
2023/09/14 12:02:45;;;;;;;4.83;2.30;;;;;;;;;;5132816;27;20793;-61
2023/09/14 12:05:13;;;;;;;4.97;2.70;;;;;;;;;;5133530;28;20528;-62
2023/09/14 12:07:40;;;;;;;3.97;2.47;;;;;;;;;;5133593;28;20817;-62
2023/09/14 12:10:18;;;;;;;5.90;3.10;;;;;;;;;;5133440;28;20434;-62
2023/09/14 12:12:45;;;;;;;10.93;3.10;;;;;;;;;;5133452;28;20506;-61
2023/09/14 12:15:18;;;;;;;3.40;2.50;;;;;;;;;;5133373;28;20992;-61
2023/09/14 12:17:50;;;;;;;11.43;4.00;;;;;;;;;;5133644;28;20774;-61
2023/09/14 12:20:18;;;;;;;5.33;2.30;;;;;;;;;;5132966;28;20444;-61
2023/09/14 12:22:46;;;;;;;5.20;2.10;;;;;;;;;;5133146;28;20532;-61
2023/09/14 12:25:14;;;;;;;5.03;2.40;;;;;;;;;;5133943;28;20532;-61
2023/09/14 12:27:41;;;;;;;6.40;2.43;;;;;;;;;;5133387;28;20801;-62
2023/09/14 12:30:10;;;;;;;8.07;2.73;;;;;;;;;;5133064;28;20541;-61
2023/09/14 12:32:39;;;;;;;4.60;2.50;;;;;;;;;;5133367;28;20435;-61
2023/09/14 12:35:08;;;;;;;4.30;2.30;;;;;;;;;;5133794;28;20437;-62
2023/09/14 12:37:36;;;;;;;6.90;3.83;;;;;;;;;;5132712;28;20838;-61
2023/09/14 12:40:06;;;;;;;7.03;2.40;;;;;;;;;;5132686;28;20465;-62
2023/09/14 12:42:35;;;;;;;5.80;2.27;;;;;;;;;;5132765;28;20944;-62
2023/09/14 12:45:04;;;;;;;4.90;2.50;;;;;;;;;;5133249;28;20441;-62
2023/09/14 12:47:31;;;;;;;5.33;3.30;;;;;;;;;;5133249;28;20825;-62
2023/09/14 12:49:59;;;;;;;14.90;9.10;;;;;;;;;;5132526;28;20564;-62
2023/09/14 12:52:28;;;;;;;6.50;3.60;;;;;;;;;;5132717;28;20528;-62
2023/09/14 12:54:55;;;;;;;5.77;2.60;;;;;;;;;;5133414;28;20537;-62
2023/09/14 12:57:22;;;;;;;3.73;2.37;;;;;;;;;;5132824;28;20536;-62
2023/09/14 13:00:11;;;;;;;5.30;2.30;;;;;;;;;;5132956;28;20476;-62
2023/09/14 13:02:39;;;;;;;7.00;2.33;;;;;;;;;;5132917;28;20458;-62
2023/09/14 13:05:07;;;;;;;4.10;2.37;;;;;;;;;;5133204;28;20533;-62
2023/09/14 13:07:36;;;;;;;26.53;15.43;;;;;;;;;;5133125;28;20809;-62
2023/09/14 13:10:07;;;;;;;4.13;3.10;;;;;;;;;;5132699;28;20442;-61
2023/09/14 13:12:35;;;;;;;7.50;2.83;;;;;;;;;;5132891;28;20923;-61
2023/09/14 13:15:04;;;;;;;5.07;2.70;;;;;;;;;;5136359;27;20510;-61
2023/09/14 13:17:31;;;;;;;5.90;4.07;;;;;;;;;;5136727;27;20521;-61
2023/09/14 13:19:58;;;;;;;9.33;2.73;;;;;;;;;;5136422;27;20534;-61
2023/09/14 13:22:26;;;;;;;4.90;2.80;;;;;;;;;;5136051;27;20531;-61
2023/09/14 13:24:54;;;;;;;4.10;2.50;;;;;;;;;;5136172;27;20563;-61
2023/09/14 13:27:21;;;;;;;4.00;2.30;;;;;;;;;;5136524;27;20804;-61
2023/09/14 13:29:49;;;;;;;4.27;2.60;;;;;;;;;;5135735;27;20784;-61
2023/09/14 13:32:17;;;;;;;6.27;3.20;;;;;;;;;;5135956;27;20520;-61
2023/09/14 13:34:44;;;;;;;7.03;2.90;;;;;;;;;;5136345;27;20491;-61
2023/09/14 13:37:11;;;;;;;3.03;2.20;;;;;;;;;;5136066;27;20829;-61
2023/09/14 13:39:38;;;;;;;6.37;3.20;;;;;;;;;;5136070;27;20438;-61
2023/09/14 13:42:07;;;;;;;6.47;2.83;;;;;;;;;;5136073;27;20522;-61
2023/09/14 13:44:36;;;;;;;5.40;2.67;;;;;;;;;;5135666;27;20442;-61
2023/09/14 13:47:03;;;;;;;5.90;3.07;;;;;;;;;;5136134;27;20450;-61
2023/09/14 13:49:31;;;;;;;6.40;2.87;;;;;;;;;;5135821;27;20438;-61
2023/09/14 13:51:58;;;;;;;5.70;2.57;;;;;;;;;;5135478;27;20530;-62
2023/09/14 13:54:25;;;;;;;7.00;4.23;;;;;;;;;;5135847;27;20916;-62
2023/09/14 13:56:52;;;;;;;3.37;2.83;;;;;;;;;;5135873;27;20556;-61
2023/09/14 13:59:21;;;;;;;7.30;3.43;;;;;;;;;;5135985;27;20434;-61
2023/09/14 14:01:48;;;;;;;4.87;3.33;;;;;;;;;;5135473;27;20452;-61
2023/09/14 14:04:15;;;;;;;3.50;2.93;;;;;;;;;;5135438;27;20954;-61
2023/09/14 14:06:42;;;;;;;4.57;2.33;;;;;;;;;;5135767;27;20456;-61
2023/09/14 14:09:09;;;;;;;4.53;2.97;;;;;;;;;;5135494;27;20521;-61
2023/09/14 14:11:37;;;;;;;6.67;3.03;;;;;;;;;;5135489;27;20529;-61
2023/09/14 14:14:04;;;;;;;10.73;6.70;;;;;;;;;;5135187;27;20440;-61
2023/09/14 14:16:32;;;;;;;5.17;2.83;;;;;;;;;;5135147;27;20994;-61
2023/09/14 14:19:00;;;;;;;6.10;3.30;;;;;;;;;;5135436;27;20444;-61
2023/09/14 14:21:29;;;;;;;8.60;2.70;;;;;;;;;;5135158;27;20531;-60
2023/09/14 14:23:56;;;;;;;3.17;2.50;;;;;;;;;;5134629;27;20489;-60
2023/09/14 14:26:23;;;;;;;3.87;2.77;;;;;;;;;;5134760;27;20779;-60
2023/09/14 14:28:51;;;;;;;5.57;3.20;;;;;;;;;;5134392;27;21149;-61
2023/09/14 14:31:18;;;;;;;6.57;5.20;;;;;;;;;;5134688;27;20448;-62
2023/09/14 14:33:46;;;;;;;8.63;3.30;;;;;;;;;;5135140;27;20528;-61
2023/09/14 14:36:14;;;;;;;6.20;3.07;;;;;;;;;;5135212;27;20581;-61
2023/09/14 14:38:41;;;;;;;4.13;2.90;;;;;;;;;;5134955;27;20973;-61
2023/09/14 14:41:08;;;;;;;4.00;2.67;;;;;;;;;;5134553;27;20517;-61
2023/09/14 14:43:35;;;;;;;5.23;2.70;;;;;;;;;;5134560;27;20429;-61